Time;durP1;ratioP1;P1;durP2;ratioP2;P2;SDS_P1;SDS_P2;PMS_P1;PMS_P2;Temp;Humidity;BMP_temperature;BMP_pressure;BME280_temperature;BME280_humidity;BME280_pressure;Samples;Min_cycle;Max_cycle;Signal;HPM_P1;HPM_P2
2024/02/08 00:02:19;;;;;;;0.00;0.00;;;;;;;6.03;100.00;99012.19;6283042;22;20067;-72
2024/02/08 00:05:00;;;;;;;0.00;0.00;;;;;;;6.05;100.00;99012.72;6279819;22;20038;-73
2024/02/08 00:07:25;;;;;;;0.00;0.00;;;;;;;6.05;100.00;98993.72;6337187;22;20007;-73
2024/02/08 00:09:51;;;;;;;0.00;0.00;;;;;;;5.87;100.00;98961.66;6304444;22;20345;-73
2024/02/08 00:12:17;;;;;;;0.00;0.00;;;;;;;6.06;100.00;98984.50;6258315;22;20036;-70
2024/02/08 00:14:43;;;;;;;0.00;0.00;;;;;;;5.95;100.00;98972.78;6334281;22;20062;-71
2024/02/08 00:17:08;;;;;;;0.00;0.00;;;;;;;5.88;100.00;98955.16;6283224;22;20011;-71
2024/02/08 00:19:34;;;;;;;0.00;0.00;;;;;;;5.90;100.00;98966.56;6307373;22;20103;-72
2024/02/08 00:22:00;;;;;;;0.00;0.00;;;;;;;5.98;100.00;98976.91;6330897;22;20002;-71
2024/02/08 00:24:25;;;;;;;0.00;0.00;;;;;;;5.80;100.00;98936.69;6308632;22;20018;-71
2024/02/08 00:26:53;;;;;;;0.00;0.00;;;;;;;6.01;100.00;98965.50;6279838;22;20093;-71
2024/02/08 00:29:19;;;;;;;0.00;0.00;;;;;;;6.01;100.00;98965.50;6279627;22;20006;-72
2024/02/08 00:31:45;;;;;;;0.00;0.00;;;;;;;6.00;100.00;98963.91;6281179;22;20259;-73
2024/02/08 00:34:11;;;;;;;0.10;0.10;;;;;;;6.03;100.00;98954.38;6283128;22;20095;-73
2024/02/08 00:36:38;;;;;;;0.00;0.00;;;;;;;5.94;100.00;98932.38;6309188;22;20081;-72
2024/02/08 00:39:06;;;;;;;0.00;0.00;;;;;;;6.02;100.00;98945.44;6282421;22;20509;-72
2024/02/08 00:41:36;;;;;;;0.00;0.00;;;;;;;6.01;100.00;98943.78;6287160;22;20066;-73
2024/02/08 00:44:10;;;;;;;0.00;0.00;;;;;;;5.93;100.00;98930.75;6336947;22;20013;-71
2024/02/08 00:46:38;;;;;;;0.00;0.00;;;;;;;5.87;100.00;98929.09;6338606;22;20086;-72
2024/02/08 00:49:03;;;;;;;0.00;0.00;;;;;;;5.89;100.00;98916.09;6285459;22;20052;-76
2024/02/08 00:51:31;;;;;;;0.00;0.00;;;;;;;5.91;100.00;98927.47;6306670;22;20003;-72
2024/02/08 00:53:59;;;;;;;0.00;0.00;;;;;;;5.75;100.00;98902.25;6287212;22;20006;-74
2024/02/08 00:56:25;;;;;;;0.00;0.00;;;;;;;5.65;100.00;98891.41;6283176;22;20224;-73
2024/02/08 00:58:51;;;;;;;0.00;0.00;;;;;;;5.75;100.00;98913.09;6310921;22;20025;-74
2024/02/08 01:01:17;;;;;;;0.00;0.00;;;;;;;5.68;100.00;98891.69;6305335;22;20081;-72
2024/02/08 01:03:43;;;;;;;0.08;0.08;;;;;;;5.80;100.00;98904.16;6340205;22;20305;-74
2024/02/08 01:06:11;;;;;;;0.00;0.00;;;;;;;5.80;100.00;98904.97;6310095;22;20007;-73
2024/02/08 01:08:51;;;;;;;0.00;0.00;;;;;;;5.87;100.00;98910.94;6341152;22;20009;-73
2024/02/08 01:11:19;;;;;;;0.00;0.00;;;;;;;5.77;100.00;98895.47;6310365;22;20014;-71
2024/02/08 01:13:44;;;;;;;0.00;0.00;;;;;;;5.70;100.00;98884.09;6310838;22;19990;-73
2024/02/08 01:16:14;;;;;;;0.10;0.10;;;;;;;5.56;100.00;98872.16;6312370;22;20034;-73
2024/02/08 01:18:41;;;;;;;0.00;0.00;;;;;;;5.52;100.00;98868.34;6309222;22;20033;-73
2024/02/08 01:21:10;;;;;;;0.00;0.00;;;;;;;5.54;100.00;98864.28;6339914;22;20458;-73
2024/02/08 01:23:37;;;;;;;0.00;0.00;;;;;;;5.64;100.00;98879.75;6309138;22;19999;-72
2024/02/08 01:26:03;;;;;;;0.10;0.10;;;;;;;5.58;100.00;98854.53;6339826;22;20005;-72
2024/02/08 01:28:32;;;;;;;0.00;0.00;;;;;;;5.73;100.00;98871.88;6310555;22;20003;-71
2024/02/08 01:31:01;;;;;;;0.00;0.00;;;;;;;5.75;100.00;98856.97;6284077;22;20010;-73
2024/02/08 01:33:29;;;;;;;0.00;0.00;;;;;;;5.60;100.00;98824.44;6282377;22;20017;-72
2024/02/08 01:35:54;;;;;;;0.00;0.00;;;;;;;5.76;100.00;98845.03;6283344;22;20017;-72
2024/02/08 01:38:21;;;;;;;0.00;0.00;;;;;;;5.62;100.00;98816.81;6289819;22;20030;-71
2024/02/08 01:40:46;;;;;;;0.00;0.00;;;;;;;5.81;100.00;98832.53;6310796;22;20011;-73
2024/02/08 01:43:12;;;;;;;0.10;0.10;;;;;;;5.81;100.00;98818.97;6286174;22;20002;-72
2024/02/08 01:45:41;;;;;;;0.00;0.00;;;;;;;5.87;100.00;98815.16;6282470;22;20014;-72
2024/02/08 01:48:12;;;;;;;0.00;0.00;;;;;;;5.91;100.00;98814.38;6338360;22;20055;-73
2024/02/08 01:50:41;;;;;;;0.00;0.00;;;;;;;5.91;100.00;98802.69;6338575;22;20066;-73
2024/02/08 01:53:13;;;;;;;0.00;0.00;;;;;;;5.86;100.00;98800.00;6335005;22;20005;-74
2024/02/08 01:55:40;;;;;;;0.00;0.00;;;;;;;5.92;100.00;98807.03;6337040;22;20003;-73
2024/02/08 01:58:07;;;;;;;0.00;0.00;;;;;;;5.96;100.00;98805.41;6277948;22;20598;-72
2024/02/08 02:00:36;;;;;;;0.00;0.00;;;;;;;5.92;100.00;98788.84;6340388;22;20003;-71
2024/02/08 02:03:05;;;;;;;0.00;0.00;;;;;;;5.99;100.00;98794.03;6332142;22;19998;-73
2024/02/08 02:05:31;;;;;;;0.00;0.00;;;;;;;6.03;100.00;98772.56;6306866;22;20109;-73
2024/02/08 02:07:59;;;;;;;0.00;0.00;;;;;;;6.06;100.00;98764.69;6313783;22;20418;-73
2024/02/08 02:10:32;;;;;;;0.00;0.00;;;;;;;6.10;100.00;98762.22;6335431;22;20006;-71
2024/02/08 02:13:10;;;;;;;0.00;0.00;;;;;;;6.04;100.00;98758.72;6281917;22;20003;-73
2024/02/08 02:15:39;;;;;;;0.10;0.10;;;;;;;6.06;100.00;98761.16;6307896;22;20034;-72
2024/02/08 02:18:09;;;;;;;0.10;0.10;;;;;;;6.07;100.00;98757.34;6309599;22;20025;-70
2024/02/08 02:20:35;;;;;;;0.00;0.00;;;;;;;5.99;100.00;98731.59;6335534;22;20022;-71
2024/02/08 02:23:03;;;;;;;0.00;0.00;;;;;;;6.18;100.00;98747.28;6287176;22;19986;-71
2024/02/08 02:25:29;;;;;;;0.00;0.00;;;;;;;6.17;100.00;98740.22;6309029;22;20048;-72
2024/02/08 02:27:58;;;;;;;0.00;0.00;;;;;;;6.17;100.00;98734.78;6310454;22;20002;-72
2024/02/08 02:30:26;;;;;;;0.00;0.00;;;;;;;6.19;100.00;98732.59;6283481;22;20007;-72
2024/02/08 02:32:54;;;;;;;0.00;0.00;;;;;;;6.18;100.00;98725.56;6307261;22;20598;-72
2024/02/08 02:35:23;;;;;;;0.10;0.10;;;;;;;6.18;100.00;98722.84;6257544;22;20014;-72
2024/02/08 02:37:52;;;;;;;0.00;0.00;;;;;;;6.08;100.00;98708.22;6333607;22;20042;-74
2024/02/08 02:40:24;;;;;;;0.00;0.00;;;;;;;6.16;100.00;98701.41;6309283;22;20081;-74
2024/02/08 02:42:57;;;;;;;0.00;0.00;;;;;;;6.13;100.00;98699.25;6306342;22;20003;-72
2024/02/08 02:45:28;;;;;;;0.00;0.00;;;;;;;6.16;100.00;98684.31;6281661;22;20031;-73
2024/02/08 02:47:55;;;;;;;0.00;0.00;;;;;;;6.25;100.00;98693.47;6308557;22;20034;-73
2024/02/08 02:50:21;;;;;;;0.00;0.00;;;;;;;6.18;100.00;98679.44;6308638;22;20011;-71
2024/02/08 02:52:47;;;;;;;0.00;0.00;;;;;;;6.15;100.00;98677.25;6280530;22;20413;-73
2024/02/08 02:55:13;;;;;;;0.00;0.00;;;;;;;6.09;100.00;98681.91;6307004;22;20014;-72
2024/02/08 02:57:41;;;;;;;0.00;0.00;;;;;;;5.81;100.00;98635.34;6305947;22;20086;-73
2024/02/08 03:00:25;;;;;;;0.00;0.00;;;;;;;5.97;100.00;98671.38;6279049;22;20038;-73
2024/02/08 03:02:52;;;;;;;0.00;0.00;;;;;;;5.95;100.00;98660.75;6306154;22;20009;-72
2024/02/08 03:05:20;;;;;;;0.00;0.00;;;;;;;5.94;100.00;98658.31;6278643;22;20002;-72
2024/02/08 03:07:48;;;;;;;0.00;0.00;;;;;;;5.97;100.00;98655.09;6284362;22;19991;-72
2024/02/08 03:10:13;;;;;;;0.00;0.00;;;;;;;5.95;100.00;98635.53;6335001;22;20007;-71
2024/02/08 03:12:40;;;;;;;0.00;0.00;;;;;;;5.99;100.00;98631.22;6281122;22;20014;-73
2024/02/08 03:15:09;;;;;;;0.00;0.00;;;;;;;6.00;100.00;98632.84;6283967;22;20075;-71
2024/02/08 03:17:38;;;;;;;0.00;0.00;;;;;;;5.97;100.00;98617.09;6309247;22;20011;-73
2024/02/08 03:20:06;;;;;;;0.00;0.00;;;;;;;5.91;100.00;98623.63;6280941;22;20030;-73
2024/02/08 03:22:34;;;;;;;0.00;0.00;;;;;;;5.83;100.00;98605.22;6284626;22;20026;-74
2024/02/08 03:25:04;;;;;;;0.00;0.00;;;;;;;5.81;100.00;98599.25;6282265;22;20287;-73
2024/02/08 03:27:33;;;;;;;0.00;0.00;;;;;;;5.86;100.00;98604.66;6307508;22;20035;-72
2024/02/08 03:30:00;;;;;;;0.00;0.00;;;;;;;5.91;100.00;98607.34;6303705;22;20016;-73
2024/02/08 03:32:27;;;;;;;0.00;0.00;;;;;;;5.86;100.00;98577.53;6308143;22;20385;-73
2024/02/08 03:34:56;;;;;;;0.00;0.00;;;;;;;5.97;100.00;98595.41;6307611;22;20007;-73
2024/02/08 03:37:22;;;;;;;0.00;0.00;;;;;;;5.99;100.00;98587.00;6304776;22;19998;-73
2024/02/08 03:39:47;;;;;;;0.00;0.00;;;;;;;5.95;100.00;98575.84;6309425;22;20014;-75
2024/02/08 03:42:16;;;;;;;0.00;0.00;;;;;;;5.91;100.00;98564.75;6309540;22;19998;-72
2024/02/08 03:44:42;;;;;;;0.00;0.00;;;;;;;5.95;100.00;98554.16;6335373;22;20062;-75
2024/02/08 03:47:10;;;;;;;0.00;0.00;;;;;;;5.94;100.00;98544.38;6309217;22;20018;-74
2024/02/08 03:49:40;;;;;;;0.00;0.00;;;;;;;5.89;100.00;98528.16;6284799;22;20414;-74
2024/02/08 03:52:09;;;;;;;0.00;0.00;;;;;;;6.03;100.00;98540.03;6258911;22;20006;-74
2024/02/08 03:54:36;;;;;;;0.10;0.10;;;;;;;6.05;100.00;98516.13;6336183;22;20438;-73
2024/02/08 03:57:05;;;;;;;0.00;0.00;;;;;;;6.10;100.00;98515.25;6336544;22;20057;-73
2024/02/08 03:59:32;;;;;;;0.10;0.10;;;;;;;6.09;100.00;98517.19;6309664;22;20006;-74
2024/02/08 04:02:03;;;;;;;0.00;0.00;;;;;;;6.04;100.00;98511.78;6292887;22;20035;-74
2024/02/08 04:04:59;;;;;;;0.00;0.00;;;;;;;6.05;100.00;98505.25;6287963;22;20030;-74
2024/02/08 04:07:45;;;;;;;0.10;0.10;;;;;;;5.94;100.00;98487.41;6309268;22;20333;-74
2024/02/08 04:53:30;;;;;;;0.00;0.00;;;;;;;5.95;100.00;98486.31;6340032;22;20038;-74
2024/02/08 04:54:10;;;;;;;0.00;0.00;;;;;;;5.83;100.00;98437.06;6339008;22;20018;-75
2024/02/08 04:56:36;;;;;;;0.00;0.00;;;;;;;5.75;100.00;98442.00;6312508;22;20010;-75
2024/02/08 04:59:05;;;;;;;0.00;0.00;;;;;;;5.71;100.00;98435.50;6286141;22;20011;-75
2024/02/08 05:01:31;;;;;;;0.00;0.00;;;;;;;5.70;100.00;98431.16;6288113;22;20014;-73
2024/02/08 05:03:59;;;;;;;0.10;0.10;;;;;;;5.70;100.00;98428.44;6338996;22;20030;-76
2024/02/08 05:06:25;;;;;;;0.00;0.00;;;;;;;5.68;100.00;98427.94;6287911;22;20457;-74
2024/02/08 05:08:57;;;;;;;0.00;0.00;;;;;;;5.59;100.00;98405.22;6288208;22;20033;-74
2024/02/08 05:11:23;;;;;;;0.00;0.00;;;;;;;5.70;100.00;98404.03;6287462;22;20006;-74
2024/02/08 05:14:00;;;;;;;0.10;0.10;;;;;;;5.64;100.00;98402.47;6262911;22;20006;-74
2024/02/08 05:16:27;;;;;;;0.00;0.00;;;;;;;5.57;100.00;98397.34;6287976;22;20014;-75
2024/02/08 05:18:53;;;;;;;0.00;0.00;;;;;;;5.57;100.00;98383.81;6310203;22;20043;-74
2024/02/08 05:21:19;;;;;;;0.00;0.00;;;;;;;5.62;100.00;98376.72;6311733;22;19998;-76
2024/02/08 05:23:47;;;;;;;0.00;0.00;;;;;;;5.64;100.00;98361.78;6311719;22;20089;-75
2024/02/08 05:26:25;;;;;;;0.00;0.00;;;;;;;5.68;100.00;98354.72;6288828;22;20026;-75
2024/02/08 05:28:54;;;;;;;0.00;0.00;;;;;;;5.75;100.00;98344.34;6311650;22;20068;-76
2024/02/08 05:31:20;;;;;;;0.00;0.00;;;;;;;5.76;100.00;98335.09;6286577;22;19999;-75
2024/02/08 05:33:46;;;;;;;0.10;0.10;;;;;;;5.84;100.00;98320.13;6312884;22;20005;-75
2024/02/08 05:36:17;;;;;;;0.00;0.00;;;;;;;5.90;100.00;98329.81;6340064;22;20022;-75
2024/02/08 05:38:42;;;;;;;0.00;0.00;;;;;;;5.83;100.00;98299.50;6283491;22;20452;-74
2024/02/08 05:41:09;;;;;;;0.00;0.00;;;;;;;6.03;100.00;98309.38;6285771;22;20089;-76
2024/02/08 05:43:52;;;;;;;0.10;0.10;;;;;;;6.03;100.00;98287.69;6310847;22;20371;-75
2024/02/08 05:46:28;;;;;;;0.10;0.10;;;;;;;6.09;100.00;98278.38;6315604;22;20013;-75
2024/02/08 05:49:04;;;;;;;0.10;0.10;;;;;;;6.26;100.00;98272.50;6312492;22;20034;-74
2024/02/08 05:51:31;;;;;;;0.00;0.00;;;;;;;6.25;100.00;98245.59;6286465;22;20026;-75
2024/02/08 05:54:06;;;;;;;0.00;0.00;;;;;;;6.31;100.00;98233.63;6339430;22;20013;-75
2024/02/08 05:56:39;;;;;;;0.00;0.00;;;;;;;6.24;100.00;98214.16;6311368;22;20009;-75
2024/02/08 05:59:05;;;;;;;0.00;0.00;;;;;;;6.31;100.00;98214.59;6309268;22;20009;-75
2024/02/08 06:01:44;;;;;;;0.00;0.00;;;;;;;6.43;100.00;98219.59;6286531;22;20013;-76
2024/02/08 06:04:12;;;;;;;0.00;0.00;;;;;;;6.45;100.00;98220.94;6286848;22;20647;-76
2024/02/08 06:06:48;;;;;;;0.00;0.00;;;;;;;6.34;100.00;98213.19;6285809;22;20018;-76
2024/02/08 06:09:33;;;;;;;0.00;0.00;;;;;;;6.38;100.00;98227.81;6310899;22;20068;-76
2024/02/08 06:12:08;;;;;;;0.10;0.10;;;;;;;6.29;100.00;98214.06;6337609;22;20417;-76
2024/02/08 06:14:39;;;;;;;0.00;0.00;;;;;;;6.27;100.00;98206.22;6286803;22;20084;-77
2024/02/08 06:17:11;;;;;;;0.00;0.00;;;;;;;6.27;100.00;98189.94;6311357;22;20013;-76
2024/02/08 06:19:52;;;;;;;0.00;0.00;;;;;;;6.35;100.00;98193.09;6338127;22;20014;-74
2024/02/08 06:22:22;;;;;;;0.10;0.10;;;;;;;6.39;100.00;98175.94;6314337;22;19999;-76
2024/02/08 06:24:54;;;;;;;0.00;0.00;;;;;;;6.43;100.00;98176.16;6309332;22;20018;-76
2024/02/08 06:27:25;;;;;;;0.00;0.00;;;;;;;6.46;100.00;98181.81;6310314;22;20002;-75
2024/02/08 06:29:52;;;;;;;0.00;0.00;;;;;;;6.46;100.00;98162.81;6311428;22;20007;-75
2024/02/08 06:32:34;;;;;;;0.00;0.00;;;;;;;6.56;100.00;98171.91;6286670;22;20064;-75
2024/02/08 06:35:07;;;;;;;0.00;0.00;;;;;;;6.44;100.00;98154.16;6266035;22;19999;-75
2024/02/08 06:37:53;;;;;;;0.10;0.10;;;;;;;6.52;100.00;98162.75;6262279;22;20033;-76
2024/02/08 06:40:22;;;;;;;0.00;0.00;;;;;;;6.52;100.00;98139.09;6311319;22;20011;-75
2024/02/08 06:48:48;;;;;;;0.10;0.10;;;;;;;6.57;100.00;98130.06;6192143;23;20095;-75
2024/02/08 07:41:55;;;;;;;0.00;0.00;;;;;;;7.33;100.00;97999.38;6313444;22;20033;-76
2024/02/08 07:44:22;;;;;;;0.00;0.00;;;;;;;7.42;100.00;98002.97;6287531;22;20435;-75
2024/02/08 07:46:54;;;;;;;0.00;0.00;;;;;;;7.48;100.00;98001.75;6285129;22;20038;-76
2024/02/08 07:49:39;;;;;;;0.00;0.00;;;;;;;7.53;100.00;97991.88;6286871;22;20007;-76
2024/02/08 07:52:14;;;;;;;0.00;0.00;;;;;;;7.47;100.00;97967.50;6337569;22;20003;-74
2024/02/08 07:54:45;;;;;;;0.00;0.00;;;;;;;7.60;100.00;97965.06;6288029;22;20361;-76
2024/02/08 07:57:13;;;;;;;0.00;0.00;;;;;;;7.66;100.00;97947.50;6313285;22;20036;-71
2024/02/08 07:59:42;;;;;;;0.00;0.00;;;;;;;7.84;100.00;97954.72;6286465;22;20014;-76
2024/02/08 08:02:23;;;;;;;0.00;0.00;;;;;;;7.94;100.00;97948.19;6312971;22;20014;-76
2024/02/08 08:04:56;;;;;;;0.00;0.00;;;;;;;7.91;100.00;97915.38;6332894;22;20081;-77
2024/02/08 08:07:34;;;;;;;0.00;0.00;;;;;;;8.08;100.00;97923.66;6328007;22;19995;-77
2024/02/08 08:14:06;;;;;;;0.00;0.00;;;;;;;7.99;100.00;97890.16;6148797;23;20014;-77
2024/02/08 08:17:07;;;;;;;0.00;0.00;;;;;;;7.75;100.00;97880.38;6306211;22;20003;-78
2024/02/08 08:19:38;;;;;;;0.00;0.00;;;;;;;7.89;100.00;97901.28;6338581;22;20015;-78
2024/02/08 08:22:04;;;;;;;0.00;0.00;;;;;;;7.71;100.00;97863.09;6313358;22;20101;-78
2024/02/08 08:24:42;;;;;;;0.10;0.10;;;;;;;7.91;100.00;97888.16;6309753;22;20422;-77
2024/02/08 08:30:29;;;;;;;0.00;0.00;;;;;;;7.63;100.00;97850.22;6253238;22;20021;-78
2024/02/08 08:41:00;;;;;;;0.00;0.00;;;;;;;7.64;100.00;97835.50;6338212;22;20082;-75
2024/02/08 08:43:27;;;;;;;0.00;0.00;;;;;;;7.62;100.00;97815.97;6309840;22;20011;-72
2024/02/08 08:46:09;;;;;;;0.00;0.00;;;;;;;7.60;100.00;97810.03;6334816;22;20401;-74
2024/02/08 08:48:37;;;;;;;0.00;0.00;;;;;;;7.60;100.00;97802.66;6334576;22;20302;-72
2024/02/08 08:51:18;;;;;;;0.00;0.00;;;;;;;7.89;100.00;97835.97;6306643;22;20395;-74
2024/02/08 08:54:29;;;;;;;0.00;0.00;;;;;;;7.88;100.00;97823.47;6282577;22;20097;-73
2024/02/08 08:56:56;;;;;;;0.00;0.00;;;;;;;7.91;100.00;97820.94;6255900;22;20034;-72
2024/02/08 08:59:26;;;;;;;0.00;0.00;;;;;;;8.04;100.00;97822.78;6312481;22;20013;-71
2024/02/08 09:01:52;;;;;;;0.00;0.00;;;;;;;8.02;100.00;97807.88;6306940;22;20006;-74
2024/02/08 09:04:32;;;;;;;0.10;0.10;;;;;;;8.12;100.00;97810.31;6310193;22;20024;-74
2024/02/08 09:07:13;;;;;;;0.00;0.00;;;;;;;8.01;100.00;97770.88;6334022;22;20495;-73
2024/02/08 09:13:18;;;;;;;0.00;0.00;;;;;;;8.37;100.00;97780.78;6337289;22;20040;-74
2024/02/08 09:21:33;;;;;;;0.00;0.00;;;;;;;8.77;100.00;97739.84;6300618;22;20005;-74
2024/02/08 09:24:22;;;;;;;0.00;0.00;;;;;;;8.80;100.00;97720.13;6311062;22;20429;-74
2024/02/08 09:29:38;;;;;;;0.00;0.00;;;;;;;9.21;100.00;97720.75;6338184;22;20068;-74
2024/02/08 09:32:52;;;;;;;0.00;0.00;;;;;;;9.52;100.00;97742.38;6286735;22;20011;-73
2024/02/08 09:35:29;;;;;;;0.00;0.00;;;;;;;9.54;100.00;97704.63;6296600;22;20010;-74
2024/02/08 09:38:02;;;;;;;0.00;0.00;;;;;;;9.78;100.00;97717.75;6308390;22;20060;-74
2024/02/08 09:40:51;;;;;;;0.00;0.00;;;;;;;9.98;100.00;97726.31;6313368;22;20010;-74
2024/02/08 09:44:09;;;;;;;0.00;0.00;;;;;;;9.71;100.00;97672.97;6315441;22;19982;-74
2024/02/08 09:47:04;;;;;;;;;;;;;;;;;;;;;
2024/02/08 09:50:00;;;;;;;;;;;;;;;;;;;;;
2024/02/08 09:52:41;;;;;;;0.00;0.00;;;;;;;10.34;100.00;97696.91;6340330;22;20462;-73
2024/02/08 09:55:18;;;;;;;0.00;0.00;;;;;;;10.41;100.00;97680.81;6309638;22;20013;-73
2024/02/08 09:57:47;;;;;;;0.00;0.00;;;;;;;10.63;100.00;97696.88;6309561;22;20009;-74
2024/02/08 10:03:44;;;;;;;;;;;;;;;;;;;;;
2024/02/08 10:06:23;;;;;;;0.00;0.00;;;;;;;10.45;100.00;97676.28;6336089;22;20082;-74
2024/02/08 10:08:54;;;;;;;0.00;0.00;;;;;;;10.44;100.00;97671.94;6311579;22;20002;-76
2024/02/08 10:11:35;;;;;;;0.00;0.00;;;;;;;10.53;100.00;97678.16;6309917;22;20006;-73
2024/02/08 10:14:02;;;;;;;0.00;0.00;;;;;;;10.79;100.00;97693.53;6287992;22;20010;-72
2024/02/08 10:16:42;;;;;;;0.00;0.00;;;;;;;10.81;100.00;97686.63;6312521;22;20342;-72
2024/02/08 10:19:48;;;;;;;0.00;0.00;;;;;;;10.60;100.00;97653.84;6284559;22;20023;-74
2024/02/08 10:28:10;;;;;;;0.00;0.00;;;;;;;10.95;100.00;97664.47;6337559;22;20013;-71
2024/02/08 10:31:07;;;;;;;;;;;;;;;;;;;;;
2024/02/08 10:33:48;;;;;;;0.00;0.00;;;;;;;10.89;100.00;97622.06;6339151;22;20073;-74
2024/02/08 10:36:21;;;;;;;0.00;0.00;;;;;;;11.17;100.00;97666.03;6335882;22;20048;-73
2024/02/08 10:39:02;;;;;;;0.00;0.00;;;;;;;11.10;100.00;97664.97;6311028;22;20068;-72
2024/02/08 10:44:22;;;;;;;0.00;0.00;;;;;;;11.05;100.00;97651.50;6335344;22;20017;-71
2024/02/08 10:47:06;;;;;;;0.00;0.00;;;;;;;10.96;100.00;97633.25;6334504;22;20085;-71
2024/02/08 10:49:51;;;;;;;0.00;0.00;;;;;;;11.01;100.00;97629.53;6309959;22;20007;-71
2024/02/08 10:52:33;;;;;;;0.00;0.00;;;;;;;11.21;100.00;97647.00;6336816;22;20003;-72
2024/02/08 10:55:18;;;;;;;0.00;0.00;;;;;;;11.23;100.00;97644.72;6336004;22;20009;-72
2024/02/08 10:58:27;;;;;;;0.00;0.00;;;;;;;11.32;100.00;97655.59;6288069;22;20043;-73
2024/02/08 11:03:53;;;;;;;;;;;;;;;;;;;;;
2024/02/08 11:06:34;;;;;;;0.00;0.00;;;;;;;11.59;100.00;97658.81;6316616;22;20062;-72
2024/02/08 11:09:17;;;;;;;0.00;0.00;;;;;;;11.81;100.00;97682.22;6336260;22;20007;-73
2024/02/08 11:12:04;;;;;;;;;;;;;;;;;;;;;
2024/02/08 11:14:40;;;;;;;0.00;0.00;;;;;;;11.92;100.00;97683.38;6335237;22;20202;-72
2024/02/08 11:17:20;;;;;;;0.00;0.00;;;;;;;11.88;100.00;97660.53;6309083;22;20010;-74
2024/02/08 11:20:16;;;;;;;0.00;0.00;;;;;;;12.09;100.00;97681.56;6336306;22;20063;-73
2024/02/08 11:22:45;;;;;;;0.00;0.00;;;;;;;12.00;100.00;97676.19;6307283;22;20030;-72
2024/02/08 11:25:19;;;;;;;0.00;0.00;;;;;;;11.93;100.00;97654.88;6261181;22;20006;-74
2024/02/08 11:27:55;;;;;;;0.10;0.10;;;;;;;11.88;100.00;97660.53;6277437;22;20003;-75
2024/02/08 11:30:40;;;;;;;0.10;0.10;;;;;;;11.94;100.00;97669.38;6340172;22;20003;-74
2024/02/08 11:33:13;;;;;;;0.00;0.00;;;;;;;11.94;100.00;97670.16;6281055;22;20017;-73
2024/02/08 11:35:56;;;;;;;0.00;0.00;;;;;;;11.85;100.00;97658.50;6337071;22;19998;-71
2024/02/08 11:38:30;;;;;;;0.00;0.00;;;;;;;11.96;100.00;97654.19;6309118;22;20333;-73
2024/02/08 11:41:09;;;;;;;0.00;0.00;;;;;;;11.97;100.00;97636.63;6281367;22;20056;-74
2024/02/08 11:43:47;;;;;;;0.00;0.00;;;;;;;12.02;100.00;97649.28;6337836;22;19995;-73
2024/02/08 11:46:20;;;;;;;0.00;0.00;;;;;;;12.03;100.00;97656.34;6335203;22;20007;-73
2024/02/08 11:48:46;;;;;;;0.00;0.00;;;;;;;11.80;100.00;97626.66;6336307;22;20087;-72
2024/02/08 11:51:15;;;;;;;0.00;0.00;;;;;;;11.88;100.00;97650.41;6309485;22;20035;-72
2024/02/08 11:53:45;;;;;;;0.00;0.00;;;;;;;11.91;100.00;97637.94;6335026;22;20003;-71
2024/02/08 11:56:12;;;;;;;0.00;0.00;;;;;;;11.94;100.00;97642.78;6306696;22;19999;-70
2024/02/08 11:58:50;;;;;;;0.00;0.00;;;;;;;11.87;100.00;97637.84;6308345;22;20007;-72
2024/02/08 12:01:25;;;;;;;0.00;0.00;;;;;;;11.88;100.00;97633.97;6334679;22;20029;-72
2024/02/08 12:03:53;;;;;;;0.00;0.00;;;;;;;11.77;100.00;97626.53;6307469;22;19991;-71
2024/02/08 12:06:21;;;;;;;0.00;0.00;;;;;;;11.82;100.00;97631.81;6308696;22;20006;-71
2024/02/08 12:08:59;;;;;;;0.00;0.00;;;;;;;11.85;100.00;97633.84;6337678;22;20010;-71
2024/02/08 12:11:32;;;;;;;0.00;0.00;;;;;;;11.82;100.00;97615.38;6308613;22;20002;-71
2024/02/08 12:14:06;;;;;;;0.00;0.00;;;;;;;11.83;100.00;97603.28;6335069;22;20044;-72
2024/02/08 12:16:38;;;;;;;0.00;0.00;;;;;;;11.95;100.00;97611.50;6309920;22;20093;-71
2024/02/08 12:19:15;;;;;;;0.00;0.00;;;;;;;12.01;100.00;97621.09;6307075;22;20023;-71
2024/02/08 12:21:42;;;;;;;0.00;0.00;;;;;;;11.93;100.00;97597.38;6310360;22;20002;-72
2024/02/08 12:24:16;;;;;;;0.00;0.00;;;;;;;11.91;100.00;97596.88;6253345;22;20007;-72
2024/02/08 12:26:43;;;;;;;;;;;;;;;11.93;100.00;97619.28;6338317;22;20003;-71
2024/02/08 12:29:19;;;;;;;0.00;0.00;;;;;;;11.84;100.00;97610.34;6308967;22;19981;-72
2024/02/08 12:31:50;;;;;;;0.00;0.00;;;;;;;11.69;100.00;97592.66;6337518;22;20009;-71
2024/02/08 12:34:17;;;;;;;0.00;0.00;;;;;;;11.62;100.00;97592.44;6335019;22;20002;-72
2024/02/08 12:36:46;;;;;;;0.00;0.00;;;;;;;11.68;100.00;97597.34;6335436;22;20030;-72
2024/02/08 12:39:22;;;;;;;0.00;0.00;;;;;;;11.59;100.00;97577.50;6285040;22;20769;-73
2024/02/08 12:41:50;;;;;;;0.00;0.00;;;;;;;11.70;100.00;97588.81;6309137;22;20001;-73
2024/02/08 12:44:27;;;;;;;0.00;0.00;;;;;;;11.77;100.00;97593.69;6282375;22;20007;-72
2024/02/08 12:46:58;;;;;;;0.10;0.10;;;;;;;11.67;100.00;97601.22;6309405;22;20003;-72
2024/02/08 12:49:24;;;;;;;0.10;0.10;;;;;;;11.55;100.00;97593.03;6336508;22;20010;-72
2024/02/08 12:52:00;;;;;;;0.00;0.00;;;;;;;11.53;100.00;97578.88;6309626;22;20047;-75
2024/02/08 12:54:26;;;;;;;0.00;0.00;;;;;;;11.52;100.00;97599.16;6283721;22;20563;-72
2024/02/08 12:57:10;;;;;;;0.00;0.00;;;;;;;11.48;100.00;97592.78;6334991;22;20498;-71
2024/02/08 12:59:40;;;;;;;0.00;0.00;;;;;;;11.47;100.00;97580.25;6335018;22;20014;-71
2024/02/08 13:02:25;;;;;;;0.00;0.00;;;;;;;11.55;100.00;97593.03;6309968;22;20018;-69
2024/02/08 13:04:56;;;;;;;0.00;0.00;;;;;;;11.46;100.00;97584.09;6336346;22;20013;-70
2024/02/08 13:07:25;;;;;;;0.00;0.00;;;;;;;11.48;100.00;97609.22;6336960;22;19999;-71
2024/02/08 13:10:01;;;;;;;0.00;0.00;;;;;;;11.34;100.00;97571.22;6258039;22;20026;-72
2024/02/08 13:12:27;;;;;;;0.00;0.00;;;;;;;11.39;100.00;97572.94;6281404;22;20437;-72
2024/02/08 13:14:52;;;;;;;0.00;0.00;;;;;;;11.51;100.00;97583.91;6286177;22;20021;-73
2024/02/08 13:25:30;;;;;;;0.00;0.00;;;;;;;11.58;100.00;97567.72;6180198;23;20012;-74
2024/02/08 13:27:58;;;;;;;0.05;0.05;;;;;;;11.60;100.00;97551.72;6301620;22;20007;-73
2024/02/08 13:30:29;;;;;;;0.00;0.00;;;;;;;11.64;100.00;97546.38;6284103;22;20010;-72
2024/02/08 13:32:57;;;;;;;0.00;0.00;;;;;;;11.73;100.00;97549.78;6308023;22;20003;-72
2024/02/08 13:35:23;;;;;;;0.00;0.00;;;;;;;11.76;100.00;97537.34;6338143;22;20331;-73
2024/02/08 13:37:51;;;;;;;0.00;0.00;;;;;;;11.75;100.00;97539.28;6302486;22;20021;-73
2024/02/08 13:40:22;;;;;;;0.00;0.00;;;;;;;11.74;100.00;97525.94;6308249;22;20436;-72
2024/02/08 13:42:49;;;;;;;0.00;0.00;;;;;;;11.96;100.00;97520.00;6305132;22;20215;-74
2024/02/08 13:45:15;;;;;;;0.00;0.00;;;;;;;12.20;100.00;97512.84;6309445;22;19994;-71
2024/02/08 13:47:54;;;;;;;0.00;0.00;;;;;;;12.31;100.00;97524.09;6309208;22;20010;-72
2024/02/08 13:50:22;;;;;;;0.00;0.00;;;;;;;12.35;100.00;97506.66;6259050;22;20080;-72
2024/02/08 13:52:52;;;;;;;0.00;0.00;;;;;;;12.39;100.00;97510.25;6307099;22;20678;-72
2024/02/08 13:55:18;;;;;;;0.05;0.05;;;;;;;12.19;100.00;97501.13;6304371;22;20034;-73
2024/02/08 13:57:49;;;;;;;0.00;0.00;;;;;;;12.11;100.00;97493.81;6309478;22;20010;-76
2024/02/08 14:00:20;;;;;;;0.00;0.00;;;;;;;11.97;100.00;97510.66;6285131;22;20070;-73
2024/02/08 14:02:49;;;;;;;0.00;0.00;;;;;;;11.84;100.00;97487.13;6336891;22;19994;-74
2024/02/08 14:05:19;;;;;;;0.00;0.00;;;;;;;11.77;100.00;97485.00;6334853;22;20009;-72
2024/02/08 14:07:47;;;;;;;0.00;0.00;;;;;;;11.81;100.00;97496.03;6309994;22;20425;-73
2024/02/08 14:10:17;;;;;;;0.00;0.00;;;;;;;11.79;100.00;97479.19;6306209;22;20375;-75
2024/02/08 14:12:45;;;;;;;0.00;0.00;;;;;;;11.79;100.00;97468.22;6337592;22;20030;-74
2024/02/08 14:15:16;;;;;;;0.00;0.00;;;;;;;11.62;100.00;97455.59;6305513;22;20007;-74
2024/02/08 14:17:54;;;;;;;0.00;0.00;;;;;;;11.72;100.00;97457.84;6309505;22;20096;-74
2024/02/08 14:23:06;;;;;;;0.00;0.00;;;;;;;11.72;100.00;97437.91;6335537;22;20132;-74
2024/02/08 14:25:48;;;;;;;0.00;0.00;;;;;;;11.68;100.00;97433.13;6336174;22;20003;-74
2024/02/08 14:28:19;;;;;;;0.00;0.00;;;;;;;11.62;100.00;97401.66;6335905;22;20295;-75
2024/02/08 14:30:45;;;;;;;0.00;0.00;;;;;;;11.65;100.00;97411.91;6285037;22;20101;-74
2024/02/08 14:33:11;;;;;;;0.00;0.00;;;;;;;11.68;100.00;97407.66;6308976;22;20007;-76
2024/02/08 14:35:39;;;;;;;0.00;0.00;;;;;;;11.62;100.00;97404.41;6311618;22;20037;-74